GGOV

Details ICAO GGOV (OXB)
Name BISSAU OSWALDO VIEIRA INTL
Region Guinea Bissau
Timezone Africa/Bissau (UTC+0.0)
Plans Departing 35
Arriving 41
Stats Elevation 129 ft / 39 m (AMSL)
Location 11.890166° -15.648833°
Runways 1
Magnetic Variation 7.240° W
Sunrise 2017-12-16 07:16:45 UTC / 2017-12-16 07:16:45 Local
Sunset 2017-12-16 18:42:31 UTC / 2017-12-16 18:42:31 Local
Advertisement - Login to hide

Runways

ID Width Length Bearing (true) Bearing (mag) Surface Threshold Offset Overrun Length
03 148 ft / 45 m 10,509 ft / 3,203 m 22.10° 29.34° Asphalt 0 ft / 0 m 1,312 ft / 400 m
21 148 ft / 45 m 10,509 ft / 3,203 m 202.10° 209.34° Asphalt 0 ft / 0 m 656 ft / 200 m

Map

Weather


0- 5 10 15 20 25 30 35+ Temperature / ° C

Clouds and Precipitation
Forecast for 2017-12-17 00:00 UTC. Updated an hour ago

Ground ~20,000 ft ~40,000 ft Winds

METAR

GGOV 170000Z 05005KT 9000 NSC 25/13 Q1013 NOSIG

TAF

TAF GGOV 162300Z 1700/1724 02006KT 8000 NSC= TAF GQPP 162300Z 1700/1724 03015KT 6000 NSC PROB30 TEMPO 1704/1710 BKN010

Frequencies

Tower 124.30 MHz TWR
Approach 124.30 MHz APP
Approach 123.90 MHz APP
Warning: Do not use this data for real-world aviation or navigation. No guarantee of current accuracy is given.